Time,TemperatureF,DewpointF,PressureIn,WindDirection,WindDirectionDegrees,WindSpeedMPH,WindSpeedGustMPH,Humidity,HourlyPrecipIn,Conditions,Clouds,dailyrainin,SoftwareType,DateUTC
2013-03-16 00:04:00,36.4,26.0,29.77,ESE,111,2.0,10.0,67,0.00,,,0.00,weatherlink.com 1.10,2013-03-16 04:04:00,
2013-03-16 00:19:00,36.1,26.0,29.77,NW,311,0.0,6.0,66,0.00,,,0.00,weatherlink.com 1.10,2013-03-16 04:19:00,
2013-03-16 00:34:00,36.0,25.0,29.77,SW,223,4.0,9.0,65,0.00,,,0.00,weatherlink.com 1.10,2013-03-16 04:34:00,
2013-03-16 00:49:00,36.4,25.0,29.77,NW,306,5.0,14.0,64,0.00,,,0.00,weatherlink.com 1.10,2013-03-16 04:49:00,
2013-03-16 01:05:00,36.4,25.0,29.77,SW,222,7.0,11.0,64,0.00,,,0.00,weatherlink.com 1.10,2013-03-16 05:05:00,
2013-03-16 01:20:00,36.5,24.0,29.77,NNW,344,6.0,9.0,62,0.00,,,0.00,weatherlink.com 1.10,2013-03-16 05:20:00,
2013-03-16 01:35:00,36.5,26.0,29.78,NW,313,5.0,10.0,66,0.00,,,0.00,weatherlink.com 1.10,2013-03-16 05:35:00,
2013-03-16 01:50:00,35.7,27.0,29.79,North,350,1.0,8.0,71,0.00,,,0.00,weatherlink.com 1.10,2013-03-16 05:50:00,
2013-03-16 02:05:00,35.2,28.0,29.79,NW,317,2.0,4.0,75,0.00,,,0.00,weatherlink.com 1.10,2013-03-16 06:05:00,
2013-03-16 02:20:00,34.8,28.0,29.79,WNW,287,3.0,8.0,76,0.00,,,0.00,weatherlink.com 1.10,2013-03-16 06:20:00,
2013-03-16 02:35:00,34.7,28.0,29.80,NNW,337,4.0,6.0,75,0.00,,,0.00,weatherlink.com 1.10,2013-03-16 06:35:00,
2013-03-16 02:50:00,34.7,27.0,29.80,NNW,346,2.0,11.0,72,0.00,,,0.00,weatherlink.com 1.10,2013-03-16 06:50:00,
2013-03-16 03:05:00,34.5,25.0,29.80,NW,319,9.0,11.0,69,0.00,,,0.00,weatherlink.com 1.10,2013-03-16 07:05:00,
2013-03-16 03:20:00,34.2,24.0,29.80,NNE,13,4.0,8.0,67,0.00,,,0.00,weatherlink.com 1.10,2013-03-16 07:20:00,
2013-03-16 03:35:00,33.8,24.0,29.80,WNW,294,0.0,4.0,67,0.00,,,0.00,weatherlink.com 1.10,2013-03-16 07:35:00,
2013-03-16 03:50:00,33.5,23.0,29.81,North,349,5.0,11.0,65,0.00,,,0.00,weatherlink.com 1.10,2013-03-16 07:50:00,
2013-03-16 04:05:00,33.2,22.0,29.81,NNW,333,1.0,4.0,64,0.00,,,0.00,weatherlink.com 1.10,2013-03-16 08:05:00,
2013-03-16 04:20:00,32.5,21.0,29.81,NNW,338,3.0,8.0,62,0.00,,,0.00,weatherlink.com 1.10,2013-03-16 08:20:00,
2013-03-16 04:35:00,32.4,20.0,29.82,NW,307,1.0,8.0,61,0.00,,,0.00,weatherlink.com 1.10,2013-03-16 08:35:00,
2013-03-16 04:50:00,32.2,20.0,29.83,NW,308,4.0,8.0,61,0.00,,,0.00,weatherlink.com 1.10,2013-03-16 08:50:00,
2013-03-16 05:05:00,31.5,22.0,29.83,NW,305,3.0,5.0,67,0.00,,,0.00,weatherlink.com 1.10,2013-03-16 09:05:00,
2013-03-16 05:20:00,30.7,22.0,29.84,North,5,1.0,5.0,70,0.00,,,0.00,weatherlink.com 1.10,2013-03-16 09:20:00,
2013-03-16 05:35:00,30.4,22.0,29.84,North,360,2.0,6.0,71,0.00,,,0.00,weatherlink.com 1.10,2013-03-16 09:35:00,
2013-03-16 05:50:00,30.2,22.0,29.85,NNW,347,2.0,3.0,72,0.00,,,0.00,weatherlink.com 1.10,2013-03-16 09:50:00,
2013-03-16 06:05:00,29.9,21.0,29.85,North,355,2.0,6.0,69,0.00,,,0.00,weatherlink.com 1.10,2013-03-16 10:05:00,
2013-03-16 06:20:00,29.7,20.0,29.86,NW,306,2.0,4.0,68,0.00,,,0.00,weatherlink.com 1.10,2013-03-16 10:20:00,
2013-03-16 06:35:00,29.4,20.0,29.87,NNW,333,0.0,5.0,69,0.00,,,0.00,weatherlink.com 1.10,2013-03-16 10:35:00,
2013-03-16 06:50:00,29.0,19.0,29.87,NNW,333,0.0,2.0,67,0.00,,,0.00,weatherlink.com 1.10,2013-03-16 10:50:00,
2013-03-16 07:05:00,28.7,20.0,29.88,NNW,333,0.0,1.0,70,0.00,,,0.00,weatherlink.com 1.10,2013-03-16 11:05:00,
2013-03-16 07:20:00,28.2,20.0,29.88,NNW,333,1.0,2.0,71,0.00,,,0.00,weatherlink.com 1.10,2013-03-16 11:20:00,
2013-03-16 07:36:00,28.3,19.0,29.88,NNW,348,1.0,4.0,68,0.00,,,0.00,weatherlink.com 1.10,2013-03-16 11:36:00,
2013-03-16 07:51:00,28.5,18.0,29.88,NNW,341,2.0,6.0,66,0.00,,,0.00,weatherlink.com 1.10,2013-03-16 11:51:00,
2013-03-16 08:06:00,28.6,18.0,29.88,NNW,341,3.0,6.0,65,0.00,,,0.00,weatherlink.com 1.10,2013-03-16 12:06:00,
2013-03-16 08:21:00,28.9,18.0,29.88,NW,324,3.0,5.0,65,0.00,,,0.00,weatherlink.com 1.10,2013-03-16 12:21:00,
2013-03-16 08:36:00,29.5,18.0,29.89,NW,325,2.0,6.0,62,0.00,,,0.00,weatherlink.com 1.10,2013-03-16 12:36:00,
2013-03-16 08:51:00,29.9,17.0,29.89,North,10,1.0,3.0,59,0.00,,,0.00,weatherlink.com 1.10,2013-03-16 12:51:00,
2013-03-16 09:21:00,30.4,17.0,29.90,North,360,2.0,4.0,59,0.00,,,0.00,weatherlink.com 1.10,2013-03-16 13:21:00,
2013-03-16 09:51:00,30.6,18.0,29.89,North,5,2.0,3.0,60,0.00,,,0.00,weatherlink.com 1.10,2013-03-16 13:51:00,
2013-03-16 10:36:00,32.1,18.0,29.88,NNW,339,1.0,4.0,57,0.00,,,0.00,weatherlink.com 1.10,2013-03-16 14:36:00,
2013-03-16 10:51:00,33.0,19.0,29.87,NW,320,1.0,5.0,56,0.00,,,0.00,weatherlink.com 1.10,2013-03-16 14:51:00,
2013-03-16 11:06:00,33.8,18.0,29.86,NW,322,3.0,6.0,53,0.00,,,0.00,weatherlink.com 1.10,2013-03-16 15:06:00,
2013-03-16 11:36:00,35.1,21.0,29.86,NNW,346,3.0,5.0,57,0.00,,,0.00,weatherlink.com 1.10,2013-03-16 15:36:00,
2013-03-16 12:36:00,36.1,19.0,29.83,SW,227,1.0,7.0,50,0.00,,,0.00,weatherlink.com 1.10,2013-03-16 16:36:00,
2013-03-16 12:51:00,36.7,20.0,29.84,SSW,195,2.0,5.0,50,0.00,,,0.00,weatherlink.com 1.10,2013-03-16 16:51:00,
2013-03-16 13:06:00,37.2,18.0,29.84,WNW,297,0.0,8.0,47,0.00,,,0.00,weatherlink.com 1.10,2013-03-16 17:06:00,
2013-03-16 13:51:00,37.7,20.0,29.82,West,281,3.0,5.0,49,0.00,,,0.00,weatherlink.com 1.10,2013-03-16 17:51:00,
2013-03-16 14:06:00,37.6,19.0,29.82,NW,304,1.0,7.0,47,0.00,,,0.00,weatherlink.com 1.10,2013-03-16 18:06:00,
2013-03-16 14:36:00,35.6,22.0,29.83,WSW,257,3.0,9.0,58,0.00,,,0.00,weatherlink.com 1.10,2013-03-16 18:36:00,
2013-03-16 14:51:00,35.3,23.0,29.83,NW,318,2.0,5.0,61,0.00,,,0.00,weatherlink.com 1.10,2013-03-16 18:51:00,
2013-03-16 15:06:00,35.2,23.0,29.82,WSW,237,0.0,5.0,62,0.00,,,0.00,weatherlink.com 1.10,2013-03-16 19:06:00,
2013-03-16 15:21:00,34.8,25.0,29.82,East,97,0.0,3.0,68,0.00,,,0.00,weatherlink.com 1.10,2013-03-16 19:21:00,
2013-03-16 15:36:00,34.9,25.0,29.82,NNW,339,3.0,5.0,68,0.00,,,0.00,weatherlink.com 1.10,2013-03-16 19:36:00,
2013-03-16 15:51:00,34.6,25.0,29.82,WSW,248,2.0,6.0,67,0.00,,,0.00,weatherlink.com 1.10,2013-03-16 19:51:00,
2013-03-16 16:21:00,34.4,26.0,29.80,WSW,252,0.0,3.0,71,0.00,,,0.00,weatherlink.com 1.10,2013-03-16 20:21:00,
2013-03-16 16:36:00,34.1,26.0,29.80,SW,229,3.0,3.0,73,0.00,,,0.00,weatherlink.com 1.10,2013-03-16 20:36:00,
2013-03-16 16:51:00,33.6,28.0,29.81,SW,227,0.0,4.0,80,0.00,,,0.00,weatherlink.com 1.10,2013-03-16 20:51:00,
2013-03-16 17:06:00,33.1,29.0,29.80,South,181,0.0,2.0,83,0.00,,,0.00,weatherlink.com 1.10,2013-03-16 21:06:00,
2013-03-16 17:21:00,32.8,29.0,29.81,South,182,1.0,3.0,84,0.00,,,0.00,weatherlink.com 1.10,2013-03-16 21:21:00,
2013-03-16 17:36:00,32.6,29.0,29.81,South,186,0.0,2.0,85,0.00,,,0.00,weatherlink.com 1.10,2013-03-16 21:36:00,
2013-03-16 17:51:00,32.6,29.0,29.81,South,186,0.0,3.0,86,0.00,,,0.00,weatherlink.com 1.10,2013-03-16 21:51:00,
2013-03-16 18:06:00,32.5,29.0,29.82,South,187,1.0,2.0,87,0.00,,,0.00,weatherlink.com 1.10,2013-03-16 22:06:00,
2013-03-16 18:21:00,32.3,28.0,29.82,South,187,0.0,1.0,85,0.00,,,0.00,weatherlink.com 1.10,2013-03-16 22:21:00,
2013-03-16 18:36:00,32.1,28.0,29.82,South,186,1.0,1.0,85,0.00,,,0.00,weatherlink.com 1.10,2013-03-16 22:36:00,
2013-03-16 18:51:00,31.9,28.0,29.83,WNW,291,2.0,3.0,85,0.00,,,0.00,weatherlink.com 1.10,2013-03-16 22:51:00,
2013-03-16 19:06:00,31.9,28.0,29.83,West,272,1.0,3.0,85,0.00,,,0.00,weatherlink.com 1.10,2013-03-16 23:06:00,
2013-03-16 19:21:00,31.9,28.0,29.84,NW,325,0.0,4.0,85,0.00,,,0.00,weatherlink.com 1.10,2013-03-16 23:21:00,
2013-03-16 19:36:00,31.8,28.0,29.83,NW,325,1.0,3.0,85,0.00,,,0.00,weatherlink.com 1.10,2013-03-16 23:36:00,
2013-03-16 19:51:00,31.8,28.0,29.84,NW,325,0.0,1.0,86,0.00,,,0.00,weatherlink.com 1.10,2013-03-16 23:51:00,
2013-03-16 20:06:00,31.8,28.0,29.85,NW,325,0.0,1.0,86,0.00,,,0.00,weatherlink.com 1.10,2013-03-17 00:06:00,
2013-03-16 20:21:00,31.9,28.0,29.85,NW,325,1.0,2.0,85,0.00,,,0.00,weatherlink.com 1.10,2013-03-17 00:21:00,
2013-03-16 20:36:00,31.8,28.0,29.85,SW,236,0.0,5.0,85,0.00,,,0.00,weatherlink.com 1.10,2013-03-17 00:36:00,
2013-03-16 20:51:00,31.7,28.0,29.86,WSW,250,1.0,3.0,85,0.00,,,0.00,weatherlink.com 1.10,2013-03-17 00:51:00,
2013-03-16 21:06:00,31.7,28.0,29.87,WSW,242,0.0,3.0,85,0.00,,,0.00,weatherlink.com 1.10,2013-03-17 01:06:00,
2013-03-16 21:21:00,31.6,28.0,29.87,NNW,342,2.0,3.0,85,0.00,,,0.00,weatherlink.com 1.10,2013-03-17 01:21:00,
2013-03-16 21:36:00,31.6,28.0,29.88,West,279,0.0,2.0,86,0.00,,,0.00,weatherlink.com 1.10,2013-03-17 01:36:00,
2013-03-16 21:51:00,31.5,28.0,29.88,West,279,1.0,3.0,85,0.00,,,0.00,weatherlink.com 1.10,2013-03-17 01:51:00,
2013-03-16 22:21:00,31.5,28.0,29.89,West,279,0.0,1.0,86,0.00,,,0.00,weatherlink.com 1.10,2013-03-17 02:21:00,
2013-03-16 22:36:00,31.5,28.0,29.90,West,279,1.0,2.0,86,0.00,,,0.00,weatherlink.com 1.10,2013-03-17 02:36:00,
2013-03-16 22:51:00,31.5,28.0,29.91,West,279,0.0,2.0,85,0.00,,,0.00,weatherlink.com 1.10,2013-03-17 02:51:00,
2013-03-16 23:06:00,31.5,28.0,29.91,West,279,1.0,2.0,85,0.00,,,0.00,weatherlink.com 1.10,2013-03-17 03:06:00,
2013-03-16 23:21:00,31.5,28.0,29.91,West,279,0.0,2.0,85,0.00,,,0.00,weatherlink.com 1.10,2013-03-17 03:21:00,
2013-03-16 23:36:00,31.5,28.0,29.92,West,279,0.0,1.0,85,0.00,,,0.00,weatherlink.com 1.10,2013-03-17 03:36:00,
2013-03-16 23:52:00,31.3,27.0,29.92,West,277,1.0,4.0,85,0.00,,,0.00,weatherlink.com 1.10,2013-03-17 03:52:00,